sensor_id;sensor_type;location;lat;lon;timestamp;pressure;altitude;pressure_sealevel;temperature;humidity
11053;BME280;55230;42.602;23.470;2023-04-03T00:01:39;92894.81;;;5.63;96.94
11053;BME280;55230;42.602;23.470;2023-04-03T00:04:05;92880.25;;;5.64;97.04
11053;BME280;55230;42.602;23.470;2023-04-03T00:06:32;92670.25;;;4.20;96.97
11053;BME280;55230;42.602;23.470;2023-04-03T00:09:00;92830.47;;;5.20;96.98
11053;BME280;55230;42.602;23.470;2023-04-03T00:11:28;92859.34;;;5.50;96.61
11053;BME280;55230;42.602;23.470;2023-04-03T00:13:55;92802.47;;;5.12;97.08
11053;BME280;55230;42.602;23.470;2023-04-03T00:16:22;92795.13;;;5.04;96.95
11053;BME280;55230;42.602;23.470;2023-04-03T00:18:48;92869.28;;;5.62;97.30
11053;BME280;55230;42.602;23.470;2023-04-03T00:21:15;92876.88;;;5.51;97.36
11053;BME280;55230;42.602;23.470;2023-04-03T00:23:42;92866.34;;;5.69;97.58
11053;BME280;55230;42.602;23.470;2023-04-03T00:26:09;92851.22;;;5.41;97.04
11053;BME280;55230;42.602;23.470;2023-04-03T00:28:37;92870.00;;;5.75;97.45
11053;BME280;55230;42.602;23.470;2023-04-03T00:31:04;92887.53;;;5.76;96.50
11053;BME280;55230;42.602;23.470;2023-04-03T00:33:30;92874.06;;;5.67;96.92
11053;BME280;55230;42.602;23.470;2023-04-03T00:35:57;92903.56;;;5.76;97.44
11053;BME280;55230;42.602;23.470;2023-04-03T00:38:24;92800.31;;;5.32;96.83
11053;BME280;55230;42.602;23.470;2023-04-03T00:40:50;92870.75;;;5.76;96.97
11053;BME280;55230;42.602;23.470;2023-04-03T00:43:19;92820.84;;;5.35;96.62
11053;BME280;55230;42.602;23.470;2023-04-03T00:45:48;92852.97;;;5.69;96.89
11053;BME280;55230;42.602;23.470;2023-04-03T00:48:17;92668.44;;;4.29;97.03
11053;BME280;55230;42.602;23.470;2023-04-03T00:50:46;92839.00;;;5.40;96.76
11053;BME280;55230;42.602;23.470;2023-04-03T00:53:16;92671.84;;;4.42;96.81
11053;BME280;55230;42.602;23.470;2023-04-03T00:55:46;92868.19;;;5.72;96.79
11053;BME280;55230;42.602;23.470;2023-04-03T00:58:15;92717.34;;;4.64;96.31
11053;BME280;55230;42.602;23.470;2023-04-03T01:00:48;92660.22;;;4.24;96.38
11053;BME280;55230;42.602;23.470;2023-04-03T01:03:16;92877.41;;;5.59;97.89
11053;BME280;55230;42.602;23.470;2023-04-03T01:05:43;92873.75;;;5.53;98.71
11053;BME280;55230;42.602;23.470;2023-04-03T01:08:10;92850.16;;;5.26;98.44
11053;BME280;55230;42.602;23.470;2023-04-03T01:10:37;92870.97;;;5.56;98.68
11053;BME280;55230;42.602;23.470;2023-04-03T01:13:18;92820.09;;;5.10;99.70
11053;BME280;55230;42.602;23.470;2023-04-03T01:15:44;92879.97;;;5.50;100.00
11053;BME280;55230;42.602;23.470;2023-04-03T01:18:13;92583.97;;;3.47;99.36
11053;BME280;55230;42.602;23.470;2023-04-03T01:23:55;92884.13;;;5.63;99.20
11053;BME280;55230;42.602;23.470;2023-04-03T01:26:24;92811.22;;;5.25;98.54
11053;BME280;55230;42.602;23.470;2023-04-03T01:28:53;92878.44;;;5.74;98.19
11053;BME280;55230;42.602;23.470;2023-04-03T01:31:24;92870.84;;;5.72;97.72
11053;BME280;55230;42.602;23.470;2023-04-03T01:33:54;92879.38;;;5.80;96.78
11053;BME280;55230;42.602;23.470;2023-04-03T01:36:23;92883.34;;;5.75;97.36
11053;BME280;55230;42.602;23.470;2023-04-03T01:38:51;92877.69;;;5.73;97.81
11053;BME280;55230;42.602;23.470;2023-04-03T01:41:18;92486.47;;;2.96;97.08
11053;BME280;55230;42.602;23.470;2023-04-03T01:43:46;92882.38;;;5.69;97.75
11053;BME280;55230;42.602;23.470;2023-04-03T01:46:13;92882.28;;;5.73;97.76
11053;BME280;55230;42.602;23.470;2023-04-03T01:48:40;92780.03;;;4.97;97.74
11053;BME280;55230;42.602;23.470;2023-04-03T01:51:08;92884.56;;;5.74;97.04
11053;BME280;55230;42.602;23.470;2023-04-03T01:53:35;92882.09;;;5.67;97.39
11053;BME280;55230;42.602;23.470;2023-04-03T01:56:03;92886.25;;;5.68;98.04
11053;BME280;55230;42.602;23.470;2023-04-03T01:58:30;92726.94;;;4.49;97.75
11053;BME280;55230;42.602;23.470;2023-04-03T02:00:57;92701.41;;;4.35;98.08
11053;BME280;55230;42.602;23.470;2023-04-03T02:03:23;92826.72;;;5.18;98.05
11053;BME280;55230;42.602;23.470;2023-04-03T02:05:50;92805.56;;;4.98;98.32
11053;BME280;55230;42.602;23.470;2023-04-03T02:08:18;92813.81;;;4.91;99.06
11053;BME280;55230;42.602;23.470;2023-04-03T02:10:46;92806.84;;;4.81;99.55
11053;BME280;55230;42.602;23.470;2023-04-03T02:13:13;92664.09;;;3.82;100.00
11053;BME280;55230;42.602;23.470;2023-04-03T02:15:40;92778.31;;;4.53;100.00
11053;BME280;55230;42.602;23.470;2023-04-03T02:18:07;92863.81;;;5.03;100.00
11053;BME280;55230;42.602;23.470;2023-04-03T02:20:34;92777.03;;;4.45;100.00
11053;BME280;55230;42.602;23.470;2023-04-03T02:23:01;92866.59;;;5.00;100.00
11053;BME280;55230;42.602;23.470;2023-04-03T02:25:30;92498.53;;;2.44;100.00
11053;BME280;55230;42.602;23.470;2023-04-03T02:27:56;92605.41;;;3.15;100.00
11053;BME280;55230;42.602;23.470;2023-04-03T02:30:23;92866.06;;;5.05;100.00
11053;BME280;55230;42.602;23.470;2023-04-03T02:32:50;92871.50;;;5.01;100.00
11053;BME280;55230;42.602;23.470;2023-04-03T02:35:17;92806.34;;;4.32;100.00
11053;BME280;55230;42.602;23.470;2023-04-03T02:37:44;92873.13;;;4.99;100.00
11053;BME280;55230;42.602;23.470;2023-04-03T02:40:11;92808.94;;;4.61;100.00
11053;BME280;55230;42.602;23.470;2023-04-03T02:42:39;92887.31;;;4.96;100.00
11053;BME280;55230;42.602;23.470;2023-04-03T02:45:07;92762.75;;;4.23;100.00
11053;BME280;55230;42.602;23.470;2023-04-03T02:47:33;92757.41;;;4.10;100.00
11053;BME280;55230;42.602;23.470;2023-04-03T02:50:00;92861.53;;;4.77;100.00
11053;BME280;55230;42.602;23.470;2023-04-03T02:52:27;92866.13;;;4.76;100.00
11053;BME280;55230;42.602;23.470;2023-04-03T02:54:54;92856.81;;;4.68;100.00
11053;BME280;55230;42.602;23.470;2023-04-03T02:57:20;92844.31;;;4.65;100.00
11053;BME280;55230;42.602;23.470;2023-04-03T02:59:49;92838.97;;;4.65;100.00
11053;BME280;55230;42.602;23.470;2023-04-03T03:02:16;92848.47;;;4.66;100.00
11053;BME280;55230;42.602;23.470;2023-04-03T03:04:42;92784.53;;;4.21;100.00
11053;BME280;55230;42.602;23.470;2023-04-03T03:07:09;92795.91;;;4.38;100.00
11053;BME280;55230;42.602;23.470;2023-04-03T03:09:36;92834.63;;;4.71;100.00
11053;BME280;55230;42.602;23.470;2023-04-03T03:12:03;92629.97;;;3.35;100.00
11053;BME280;55230;42.602;23.470;2023-04-03T03:14:30;92833.34;;;4.76;100.00
11053;BME280;55230;42.602;23.470;2023-04-03T03:16:58;92804.09;;;4.31;100.00
11053;BME280;55230;42.602;23.470;2023-04-03T03:19:25;92799.53;;;4.31;100.00
11053;BME280;55230;42.602;23.470;2023-04-03T03:21:51;92828.28;;;4.65;100.00
11053;BME280;55230;42.602;23.470;2023-04-03T03:24:18;92831.28;;;4.67;100.00
11053;BME280;55230;42.602;23.470;2023-04-03T03:26:45;92835.88;;;4.66;100.00
11053;BME280;55230;42.602;23.470;2023-04-03T03:29:12;92796.28;;;4.24;100.00
11053;BME280;55230;42.602;23.470;2023-04-03T03:31:38;92834.38;;;4.53;100.00
11053;BME280;55230;42.602;23.470;2023-04-03T03:34:07;92838.31;;;4.48;100.00
11053;BME280;55230;42.602;23.470;2023-04-03T03:36:33;92841.94;;;4.54;100.00
11053;BME280;55230;42.602;23.470;2023-04-03T03:39:00;92736.41;;;3.84;100.00
11053;BME280;55230;42.602;23.470;2023-04-03T03:41:27;92782.28;;;4.20;100.00
11053;BME280;55230;42.602;23.470;2023-04-03T03:43:54;92438.91;;;1.36;100.00
11053;BME280;55230;42.602;23.470;2023-04-03T03:46:21;92771.03;;;4.00;100.00
11053;BME280;55230;42.602;23.470;2023-04-03T03:48:47;92704.34;;;3.59;100.00
11053;BME280;55230;42.602;23.470;2023-04-03T03:51:16;92611.13;;;2.85;100.00
11053;BME280;55230;42.602;23.470;2023-04-03T03:53:42;92844.19;;;4.43;100.00
11053;BME280;55230;42.602;23.470;2023-04-03T03:56:09;92845.94;;;4.34;100.00
11053;BME280;55230;42.602;23.470;2023-04-03T03:58:36;92789.03;;;3.96;100.00
11053;BME280;55230;42.602;23.470;2023-04-03T04:01:04;92792.91;;;3.95;100.00
11053;BME280;55230;42.602;23.470;2023-04-03T04:03:31;92813.72;;;4.00;100.00
11053;BME280;55230;42.602;23.470;2023-04-03T04:05:58;92837.69;;;4.16;100.00
11053;BME280;55230;42.602;23.470;2023-04-03T04:08:27;92613.63;;;2.92;100.00
11053;BME280;55230;42.602;23.470;2023-04-03T04:10:53;92753.97;;;3.69;100.00
11053;BME280;55230;42.602;23.470;2023-04-03T04:13:20;92841.91;;;4.42;100.00
11053;BME280;55230;42.602;23.470;2023-04-03T04:15:47;92850.75;;;4.39;100.00
11053;BME280;55230;42.602;23.470;2023-04-03T04:18:14;92840.56;;;4.50;100.00
11053;BME280;55230;42.602;23.470;2023-04-03T04:20:41;92821.41;;;3.82;100.00
11053;BME280;55230;42.602;23.470;2023-04-03T04:23:07;92394.06;;;0.89;100.00
11053;BME280;55230;42.602;23.470;2023-04-03T04:25:35;92763.28;;;4.18;100.00
11053;BME280;55230;42.602;23.470;2023-04-03T04:28:02;92856.19;;;4.77;100.00
11053;BME280;55230;42.602;23.470;2023-04-03T04:30:29;92854.06;;;4.84;100.00
11053;BME280;55230;42.602;23.470;2023-04-03T04:32:56;92856.75;;;4.97;100.00
11053;BME280;55230;42.602;23.470;2023-04-03T04:35:23;92853.88;;;4.91;100.00
11053;BME280;55230;42.602;23.470;2023-04-03T04:37:49;92249.00;;;1.15;100.00
11053;BME280;55230;42.602;23.470;2023-04-03T04:40:17;92850.25;;;5.23;100.00
11053;BME280;55230;42.602;23.470;2023-04-03T04:42:45;92848.63;;;5.25;100.00
11053;BME280;55230;42.602;23.470;2023-04-03T04:45:11;92714.31;;;4.37;100.00
11053;BME280;55230;42.602;23.470;2023-04-03T04:47:38;92750.13;;;4.77;100.00
11053;BME280;55230;42.602;23.470;2023-04-03T04:50:06;92868.63;;;5.58;100.00
11053;BME280;55230;42.602;23.470;2023-04-03T04:52:33;92827.38;;;5.47;100.00
11053;BME280;55230;42.602;23.470;2023-04-03T04:55:00;92873.19;;;5.96;100.00
11053;BME280;55230;42.602;23.470;2023-04-03T04:57:26;92583.38;;;3.94;100.00
11053;BME280;55230;42.602;23.470;2023-04-03T04:59:55;92846.03;;;5.84;100.00
11053;BME280;55230;42.602;23.470;2023-04-03T05:02:21;92846.25;;;5.90;100.00
11053;BME280;55230;42.602;23.470;2023-04-03T05:04:48;92705.69;;;4.83;100.00
11053;BME280;55230;42.602;23.470;2023-04-03T05:07:17;92800.75;;;5.77;100.00
11053;BME280;55230;42.602;23.470;2023-04-03T05:09:44;92904.72;;;6.69;99.63
11053;BME280;55230;42.602;23.470;2023-04-03T05:12:10;92728.38;;;5.59;99.74
11053;BME280;55230;42.602;23.470;2023-04-03T05:14:37;92811.19;;;6.31;99.02
11053;BME280;55230;42.602;23.470;2023-04-03T05:17:05;92710.94;;;5.67;98.39
11053;BME280;55230;42.602;23.470;2023-04-03T05:19:32;92908.81;;;7.26;97.93
11053;BME280;55230;42.602;23.470;2023-04-03T05:21:59;92498.81;;;4.41;97.33
11053;BME280;55230;42.602;23.470;2023-04-03T05:24:25;92934.28;;;7.52;97.03
11053;BME280;55230;42.602;23.470;2023-04-03T05:26:52;92913.22;;;7.81;96.43
11053;BME280;55230;42.602;23.470;2023-04-03T05:29:20;92618.03;;;5.59;95.36
11053;BME280;55230;42.602;23.470;2023-04-03T05:31:48;92880.72;;;7.88;93.97
11053;BME280;55230;42.602;23.470;2023-04-03T05:34:17;92826.34;;;7.48;92.35
11053;BME280;55230;42.602;23.470;2023-04-03T05:36:44;92609.13;;;5.83;91.59
11053;BME280;55230;42.602;23.470;2023-04-03T05:39:10;92904.16;;;7.96;91.07
11053;BME280;55230;42.602;23.470;2023-04-03T05:41:37;92845.38;;;7.89;90.92
11053;BME280;55230;42.602;23.470;2023-04-03T05:44:04;92853.75;;;8.09;89.31
11053;BME280;55230;42.602;23.470;2023-04-03T05:46:31;92912.03;;;8.49;87.73
11053;BME280;55230;42.602;23.470;2023-04-03T05:48:58;92793.38;;;7.29;86.57
11053;BME280;55230;42.602;23.470;2023-04-03T05:51:30;92905.19;;;7.99;87.31
11053;BME280;55230;42.602;23.470;2023-04-03T05:54:02;92906.59;;;8.12;87.71
11053;BME280;55230;42.602;23.470;2023-04-03T05:56:30;92847.13;;;7.65;88.41
11053;BME280;55230;42.602;23.470;2023-04-03T05:58:56;92900.00;;;8.04;91.10
11053;BME280;55230;42.602;23.470;2023-04-03T06:01:23;92889.09;;;7.90;92.14
11053;BME280;55230;42.602;23.470;2023-04-03T06:03:50;92836.06;;;7.15;93.06
11053;BME280;55230;42.602;23.470;2023-04-03T06:06:16;92880.97;;;7.72;92.80
11053;BME280;55230;42.602;23.470;2023-04-03T06:08:45;92907.88;;;7.50;94.32
11053;BME280;55230;42.602;23.470;2023-04-03T06:11:11;92889.91;;;7.29;98.04
11053;BME280;55230;42.602;23.470;2023-04-03T06:13:38;92876.41;;;7.11;97.71
11053;BME280;55230;42.602;23.470;2023-04-03T06:16:05;92895.63;;;7.40;96.20
11053;BME280;55230;42.602;23.470;2023-04-03T06:18:32;92885.06;;;7.15;96.19
11053;BME280;55230;42.602;23.470;2023-04-03T06:20:59;92895.34;;;7.47;97.00
11053;BME280;55230;42.602;23.470;2023-04-03T06:23:28;92449.78;;;4.47;95.01
11053;BME280;55230;42.602;23.470;2023-04-03T06:25:56;92898.31;;;7.80;94.46
11053;BME280;55230;42.602;23.470;2023-04-03T06:28:22;92881.47;;;7.88;92.83
11053;BME280;55230;42.602;23.470;2023-04-03T06:30:49;92895.25;;;8.17;91.20
11053;BME280;55230;42.602;23.470;2023-04-03T06:33:16;92809.88;;;7.67;90.20
11053;BME280;55230;42.602;23.470;2023-04-03T06:35:43;92903.91;;;8.21;90.35
11053;BME280;55230;42.602;23.470;2023-04-03T06:38:10;92906.16;;;8.23;90.66
11053;BME280;55230;42.602;23.470;2023-04-03T06:40:37;92907.47;;;8.09;91.38
11053;BME280;55230;42.602;23.470;2023-04-03T06:43:05;92869.16;;;8.09;90.50
11053;BME280;55230;42.602;23.470;2023-04-03T06:45:32;92866.94;;;8.26;90.63
11053;BME280;55230;42.602;23.470;2023-04-03T06:47:59;92906.66;;;8.67;90.77
11053;BME280;55230;42.602;23.470;2023-04-03T06:50:26;92849.63;;;8.36;87.78
11053;BME280;55230;42.602;23.470;2023-04-03T06:52:53;92967.13;;;8.62;88.78
11053;BME280;55230;42.602;23.470;2023-04-03T06:55:20;92877.66;;;8.07;90.00
11053;BME280;55230;42.602;23.470;2023-04-03T06:57:46;92905.47;;;8.50;90.34
11053;BME280;55230;42.602;23.470;2023-04-03T07:00:16;92903.94;;;8.94;88.32
11053;BME280;55230;42.602;23.470;2023-04-03T07:02:42;92825.91;;;8.34;88.07
11053;BME280;55230;42.602;23.470;2023-04-03T07:05:09;92856.50;;;8.46;88.54
11053;BME280;55230;42.602;23.470;2023-04-03T07:07:37;92892.34;;;8.61;89.32
11053;BME280;55230;42.602;23.470;2023-04-03T07:10:05;92893.97;;;8.58;90.12
11053;BME280;55230;42.602;23.470;2023-04-03T07:12:32;92900.69;;;8.54;90.55
11053;BME280;55230;42.602;23.470;2023-04-03T07:14:59;92738.84;;;7.32;92.77
11053;BME280;55230;42.602;23.470;2023-04-03T07:17:27;92897.06;;;8.20;93.58
11053;BME280;55230;42.602;23.470;2023-04-03T07:19:54;92743.94;;;7.39;93.76
11053;BME280;55230;42.602;23.470;2023-04-03T07:22:21;92885.91;;;8.76;93.06
11053;BME280;55230;42.602;23.470;2023-04-03T07:24:47;92808.13;;;8.09;90.54
11053;BME280;55230;42.602;23.470;2023-04-03T07:27:14;92888.59;;;8.58;91.17
11053;BME280;55230;42.602;23.470;2023-04-03T07:29:41;92753.66;;;7.82;91.79
11053;BME280;55230;42.602;23.470;2023-04-03T07:32:08;92829.78;;;8.24;91.10
11053;BME280;55230;42.602;23.470;2023-04-03T07:34:36;92841.84;;;8.19;92.38
11053;BME280;55230;42.602;23.470;2023-04-03T07:37:03;92844.41;;;8.32;93.25
11053;BME280;55230;42.602;23.470;2023-04-03T07:39:30;92775.00;;;7.94;91.62
11053;BME280;55230;42.602;23.470;2023-04-03T07:41:57;92835.06;;;7.70;93.12
11053;BME280;55230;42.602;23.470;2023-04-03T07:44:23;92872.31;;;8.26;94.42
11053;BME280;55230;42.602;23.470;2023-04-03T07:46:50;92818.22;;;7.78;96.33
11053;BME280;55230;42.602;23.470;2023-04-03T07:49:17;92877.41;;;8.51;94.50
11053;BME280;55230;42.602;23.470;2023-04-03T07:51:45;92772.16;;;7.89;90.39
11053;BME280;55230;42.602;23.470;2023-04-03T07:54:14;92880.06;;;8.96;89.63
11053;BME280;55230;42.602;23.470;2023-04-03T07:56:40;92882.00;;;8.86;89.84
11053;BME280;55230;42.602;23.470;2023-04-03T07:59:08;92820.03;;;8.81;91.14
11053;BME280;55230;42.602;23.470;2023-04-03T08:01:35;92883.25;;;9.36;87.43
11053;BME280;55230;42.602;23.470;2023-04-03T08:04:02;92881.81;;;9.17;88.72
11053;BME280;55230;42.602;23.470;2023-04-03T08:06:30;92758.03;;;8.25;89.01
11053;BME280;55230;42.602;23.470;2023-04-03T08:09:00;92879.63;;;8.88;91.06
11053;BME280;55230;42.602;23.470;2023-04-03T08:11:27;92884.25;;;8.70;90.39
11053;BME280;55230;42.602;23.470;2023-04-03T08:13:54;92895.00;;;8.70;91.64
11053;BME280;55230;42.602;23.470;2023-04-03T08:16:22;92872.78;;;9.38;89.39
11053;BME280;55230;42.602;23.470;2023-04-03T08:18:50;92871.56;;;9.39;87.40
11053;BME280;55230;42.602;23.470;2023-04-03T08:21:17;92870.53;;;9.78;85.70
11053;BME280;55230;42.602;23.470;2023-04-03T08:23:44;92534.88;;;8.04;83.61
11053;BME280;55230;42.602;23.470;2023-04-03T08:26:18;92856.47;;;10.07;83.75
11053;BME280;55230;42.602;23.470;2023-04-03T08:28:46;92519.25;;;7.52;82.62
11053;BME280;55230;42.602;23.470;2023-04-03T08:31:14;92865.97;;;10.64;84.28
11053;BME280;55230;42.602;23.470;2023-04-03T08:33:42;92743.28;;;9.92;80.86
11053;BME280;55230;42.602;23.470;2023-04-03T08:36:17;92859.75;;;10.87;80.01
11053;BME280;55230;42.602;23.470;2023-04-03T08:38:44;92788.03;;;10.37;79.02
11053;BME280;55230;42.602;23.470;2023-04-03T08:41:15;92862.50;;;11.31;77.19
11053;BME280;55230;42.602;23.470;2023-04-03T08:43:54;92850.56;;;11.37;78.00
11053;BME280;55230;42.602;23.470;2023-04-03T08:46:26;92838.84;;;11.26;76.88
11053;BME280;55230;42.602;23.470;2023-04-03T08:48:59;92730.78;;;10.57;76.49
11053;BME280;55230;42.602;23.470;2023-04-03T08:51:27;92859.03;;;11.45;74.27
11053;BME280;55230;42.602;23.470;2023-04-03T08:53:58;92796.44;;;10.83;75.99
11053;BME280;55230;42.602;23.470;2023-04-03T08:56:29;92841.47;;;11.06;77.70
11053;BME280;55230;42.602;23.470;2023-04-03T08:58:59;92841.84;;;10.99;78.70
11053;BME280;55230;42.602;23.470;2023-04-03T09:01:31;92834.03;;;11.01;80.02
11053;BME280;55230;42.602;23.470;2023-04-03T09:04:00;92827.13;;;11.14;80.52
11053;BME280;55230;42.602;23.470;2023-04-03T09:06:30;92826.59;;;11.25;77.66
11053;BME280;55230;42.602;23.470;2023-04-03T09:09:10;92844.81;;;11.30;77.54
11053;BME280;55230;42.602;23.470;2023-04-03T09:11:47;92790.56;;;10.84;76.42
11053;BME280;55230;42.602;23.470;2023-04-03T09:14:22;92790.88;;;11.01;76.42
11053;BME280;55230;42.602;23.470;2023-04-03T09:16:55;92822.97;;;11.62;75.30
11053;BME280;55230;42.602;23.470;2023-04-03T09:19:31;92732.44;;;11.47;73.54
11053;BME280;55230;42.602;23.470;2023-04-03T09:22:13;92816.06;;;11.91;70.83
11053;BME280;55230;42.602;23.470;2023-04-03T09:24:45;92757.06;;;11.54;71.44
11053;BME280;55230;42.602;23.470;2023-04-03T09:27:13;92732.47;;;11.32;68.97
11053;BME280;55230;42.602;23.470;2023-04-03T09:29:41;92813.66;;;11.78;72.05
11053;BME280;55230;42.602;23.470;2023-04-03T09:32:21;92812.47;;;11.99;73.06
11053;BME280;55230;42.602;23.470;2023-04-03T09:34:49;92760.81;;;11.57;71.67
11053;BME280;55230;42.602;23.470;2023-04-03T09:37:38;92812.34;;;12.08;69.76
11053;BME280;55230;42.602;23.470;2023-04-03T09:40:30;92824.81;;;11.86;64.28
11053;BME280;55230;42.602;23.470;2023-04-03T09:43:02;92796.91;;;11.74;65.01
11053;BME280;55230;42.602;23.470;2023-04-03T09:45:31;92786.22;;;11.65;70.86
11053;BME280;55230;42.602;23.470;2023-04-03T09:48:13;92800.84;;;11.93;66.75
11053;BME280;55230;42.602;23.470;2023-04-03T09:50:54;92798.56;;;12.26;64.51
11053;BME280;55230;42.602;23.470;2023-04-03T09:53:29;92787.25;;;12.48;64.83
11053;BME280;55230;42.602;23.470;2023-04-03T09:55:57;92787.94;;;11.83;66.04
11053;BME280;55230;42.602;23.470;2023-04-03T09:58:27;92801.06;;;11.26;65.71
11053;BME280;55230;42.602;23.470;2023-04-03T10:00:57;92793.66;;;11.70;68.80
11053;BME280;55230;42.602;23.470;2023-04-03T10:03:28;92791.34;;;11.63;68.08
11053;BME280;55230;42.602;23.470;2023-04-03T10:05:55;92788.81;;;11.74;68.56
11053;BME280;55230;42.602;23.470;2023-04-03T10:08:25;92781.97;;;11.44;68.39
11053;BME280;55230;42.602;23.470;2023-04-03T10:11:10;92495.44;;;9.14;69.88
11053;BME280;55230;42.602;23.470;2023-04-03T10:13:53;92720.47;;;10.84;69.30
11053;BME280;55230;42.602;23.470;2023-04-03T10:16:26;92618.88;;;10.46;69.33
11053;BME280;55230;42.602;23.470;2023-04-03T10:19:03;92568.63;;;10.00;69.15
11053;BME280;55230;42.602;23.470;2023-04-03T10:21:35;92782.28;;;11.31;69.55
11053;BME280;55230;42.602;23.470;2023-04-03T10:24:10;92775.97;;;11.20;71.57
11053;BME280;55230;42.602;23.470;2023-04-03T10:26:44;92646.88;;;10.34;69.91
11053;BME280;55230;42.602;23.470;2023-04-03T10:29:25;92271.00;;;7.75;69.32
11053;BME280;55230;42.602;23.470;2023-04-03T10:31:59;92767.47;;;11.27;70.33
11053;BME280;55230;42.602;23.470;2023-04-03T10:34:32;92762.91;;;11.18;71.35
11053;BME280;55230;42.602;23.470;2023-04-03T10:37:05;92764.34;;;11.14;71.65
11053;BME280;55230;42.602;23.470;2023-04-03T10:39:43;92683.84;;;10.48;72.39
11053;BME280;55230;42.602;23.470;2023-04-03T10:42:18;92762.09;;;10.98;72.58
11053;BME280;55230;42.602;23.470;2023-04-03T10:45:01;92754.53;;;11.31;74.19
11053;BME280;55230;42.602;23.470;2023-04-03T10:47:33;92767.06;;;11.48;72.08
11053;BME280;55230;42.602;23.470;2023-04-03T10:50:11;92764.50;;;11.25;73.23
11053;BME280;55230;42.602;23.470;2023-04-03T10:52:45;92729.03;;;11.32;75.68
11053;BME280;55230;42.602;23.470;2023-04-03T10:55:23;92648.59;;;10.67;75.16
11053;BME280;55230;42.602;23.470;2023-04-03T10:57:52;92755.22;;;11.46;74.83
11053;BME280;55230;42.602;23.470;2023-04-03T11:00:26;92758.94;;;11.63;75.62
11053;BME280;55230;42.602;23.470;2023-04-03T11:02:59;92761.00;;;11.53;75.57
11053;BME280;55230;42.602;23.470;2023-04-03T11:05:31;92758.22;;;11.48;79.14
11053;BME280;55230;42.602;23.470;2023-04-03T11:08:03;92765.88;;;11.35;81.03
11053;BME280;55230;42.602;23.470;2023-04-03T11:10:37;92762.53;;;11.25;84.66
11053;BME280;55230;42.602;23.470;2023-04-03T11:13:11;92761.34;;;11.26;82.72
11053;BME280;55230;42.602;23.470;2023-04-03T11:15:41;92765.19;;;11.20;88.06
11053;BME280;55230;42.602;23.470;2023-04-03T11:18:12;92650.31;;;10.35;90.05
11053;BME280;55230;42.602;23.470;2023-04-03T11:20:42;92755.47;;;11.13;91.55
11053;BME280;55230;42.602;23.470;2023-04-03T11:23:18;92751.88;;;11.16;92.85
11053;BME280;55230;42.602;23.470;2023-04-03T11:25:50;92746.19;;;11.14;93.42
11053;BME280;55230;42.602;23.470;2023-04-03T11:28:19;92469.94;;;9.24;93.04
11053;BME280;55230;42.602;23.470;2023-04-03T11:30:49;92697.97;;;10.73;93.97
11053;BME280;55230;42.602;23.470;2023-04-03T11:33:31;92741.19;;;11.07;92.20
11053;BME280;55230;42.602;23.470;2023-04-03T11:36:03;92670.38;;;10.34;93.91
11053;BME280;55230;42.602;23.470;2023-04-03T11:38:35;92746.22;;;10.71;95.77
11053;BME280;55230;42.602;23.470;2023-04-03T11:41:06;92568.13;;;9.05;99.18
11053;BME280;55230;42.602;23.470;2023-04-03T11:43:37;92683.06;;;9.66;100.00
11053;BME280;55230;42.602;23.470;2023-04-03T11:46:08;92748.66;;;9.92;100.00
11053;BME280;55230;42.602;23.470;2023-04-03T11:48:48;92745.88;;;9.63;100.00
11053;BME280;55230;42.602;23.470;2023-04-03T11:51:42;92737.50;;;9.38;100.00
11053;BME280;55230;42.602;23.470;2023-04-03T11:54:43;92746.03;;;9.36;100.00
11053;BME280;55230;42.602;23.470;2023-04-03T11:57:46;92748.59;;;9.30;100.00
11053;BME280;55230;42.602;23.470;2023-04-03T12:00:51;92750.84;;;9.32;100.00
11053;BME280;55230;42.602;23.470;2023-04-03T12:07:02;92746.63;;;9.40;100.00
11053;BME280;55230;42.602;23.470;2023-04-03T12:09:58;92744.00;;;9.55;100.00
11053;BME280;55230;42.602;23.470;2023-04-03T12:12:35;92327.91;;;6.72;100.00
11053;BME280;55230;42.602;23.470;2023-04-03T12:15:22;92746.34;;;9.62;100.00
11053;BME280;55230;42.602;23.470;2023-04-03T12:17:49;92774.94;;;9.59;100.00
11053;BME280;55230;42.602;23.470;2023-04-03T12:20:53;92744.22;;;9.42;100.00
11053;BME280;55230;42.602;23.470;2023-04-03T12:23:25;92742.72;;;9.41;100.00
11053;BME280;55230;42.602;23.470;2023-04-03T12:26:00;92720.41;;;9.26;100.00
11053;BME280;55230;42.602;23.470;2023-04-03T12:28:35;92719.88;;;9.37;100.00
11053;BME280;55230;42.602;23.470;2023-04-03T12:31:04;92731.38;;;9.37;100.00
11053;BME280;55230;42.602;23.470;2023-04-03T12:33:38;92625.38;;;8.73;100.00
11053;BME280;55230;42.602;23.470;2023-04-03T12:36:13;92657.63;;;8.73;100.00
11053;BME280;55230;42.602;23.470;2023-04-03T12:39:06;92715.88;;;9.32;100.00
11053;BME280;55230;42.602;23.470;2023-04-03T12:41:42;92744.59;;;9.26;100.00
11053;BME280;55230;42.602;23.470;2023-04-03T12:44:35;92698.47;;;9.18;100.00
11053;BME280;55230;42.602;23.470;2023-04-03T12:47:23;92689.53;;;9.12;100.00
11053;BME280;55230;42.602;23.470;2023-04-03T12:49:52;92595.69;;;8.16;100.00
11053;BME280;55230;42.602;23.470;2023-04-03T12:52:32;92685.91;;;8.92;100.00
11053;BME280;55230;42.602;23.470;2023-04-03T12:55:02;92652.47;;;8.51;100.00
11053;BME280;55230;42.602;23.470;2023-04-03T12:57:30;92551.63;;;7.90;100.00
11053;BME280;55230;42.602;23.470;2023-04-03T12:59:58;92685.91;;;8.92;100.00
11053;BME280;55230;42.602;23.470;2023-04-03T13:02:27;92152.38;;;5.24;100.00
11053;BME280;55230;42.602;23.470;2023-04-03T13:04:56;92409.72;;;7.00;100.00
11053;BME280;55230;42.602;23.470;2023-04-03T13:07:28;92681.50;;;8.71;100.00
11053;BME280;55230;42.602;23.470;2023-04-03T13:09:59;92672.44;;;8.59;100.00
11053;BME280;55230;42.602;23.470;2023-04-03T13:12:27;92661.47;;;8.72;100.00
11053;BME280;55230;42.602;23.470;2023-04-03T13:14:57;92689.25;;;8.78;100.00
11053;BME280;55230;42.602;23.470;2023-04-03T13:17:24;92683.75;;;8.72;100.00